Time;durP1;ratioP1;P1;durP2;ratioP2;P2;SDS_P1;SDS_P2;PMS_P1;PMS_P2;Temp;Humidity;BMP_temperature;BMP_pressure;BME280_temperature;BME280_humidity;BME280_pressure;Samples;Min_cycle;Max_cycle;Signal;HPM_P1;HPM_P2
2021/06/07 00:03:38;;;;;;;;;;;15.60;99.90;;;14.63;100.00;96033.84;10334761;28;2142;-85
2021/06/07 00:08:41;;;;;;;;;;;15.60;99.90;;;14.62;100.00;96031.44;10326114;28;1934;-84
2021/06/07 00:13:44;;;;;;;;;;;15.60;99.90;;;14.64;100.00;96030.06;10313560;28;1946;-83
2021/06/07 00:18:46;;;;;;;;;;;15.60;99.90;;;14.60;100.00;96029.84;10324077;28;2093;-84
2021/06/07 00:23:50;;;;;;;;;;;15.60;99.90;;;14.56;100.00;96028.81;10326638;28;2052;-85
2021/06/07 00:28:52;;;;;;;;;;;15.60;99.90;;;14.54;100.00;96031.00;10336436;28;1671;-84
2021/06/07 00:33:55;;;;;;;;;;;15.50;99.90;;;14.62;100.00;96026.84;10327813;28;1670;-84
2021/06/07 00:38:57;;;;;;;;;;;15.60;99.90;;;14.63;100.00;96027.63;10337846;28;1969;-84
2021/06/07 00:43:59;;;;;;;;;;;16.10;99.90;;;14.63;100.00;96030.34;10334925;28;1998;-83
2021/06/07 00:49:01;;;;;;;;;;;15.60;99.90;;;14.62;100.00;96028.75;10357586;28;1938;-83
2021/06/07 00:54:04;;;;;;;;;;;15.60;99.90;;;14.60;100.00;96029.84;10375349;28;2059;-85
2021/06/07 00:59:09;;;;;;;;;;;15.60;99.90;;;14.62;100.00;96012.50;10336757;28;1966;-84
2021/06/07 01:04:11;;;;;;;;;;;15.60;99.90;;;14.52;100.00;96011.56;10333429;28;2086;-85
2021/06/07 01:09:13;;;;;;;;;;;15.60;99.90;;;14.47;100.00;96019.75;10330998;28;2241;-83
2021/06/07 01:14:16;;;;;;;;;;;15.50;99.90;;;14.48;100.00;96015.13;10344327;28;2205;-84
2021/06/07 01:19:18;;;;;;;;;;;15.50;99.90;;;14.48;100.00;96004.31;10324149;28;1915;-83
2021/06/07 01:24:20;;;;;;;;;;;15.50;99.90;;;14.42;100.00;96011.66;10320016;28;2179;-85
2021/06/07 01:29:23;;;;;;;;;;;15.50;99.90;;;14.44;100.00;96009.50;10324100;28;1789;-83
2021/06/07 01:34:25;;;;;;;;;;;15.50;99.90;;;14.48;100.00;96015.13;10317639;28;2116;-85
2021/06/07 01:39:27;;;;;;;;;;;15.50;99.90;;;14.43;100.00;96015.97;10330907;28;2202;-84
2021/06/07 01:44:30;;;;;;;;;;;15.50;99.90;;;14.43;100.00;96018.69;10330221;28;2151;-84
2021/06/07 01:49:32;;;;;;;;;;;15.50;99.90;;;14.51;100.00;96023.50;10330533;28;1733;-84
2021/06/07 01:54:34;;;;;;;;;;;15.50;99.90;;;14.56;100.00;96023.41;10351134;28;2147;-84
2021/06/07 01:59:37;;;;;;;;;;;15.50;99.90;;;14.59;100.00;96011.19;10337528;28;1671;-83
2021/06/07 02:04:39;;;;;;;;;;;15.60;99.90;;;14.50;100.00;96007.53;10320425;28;2171;-85
2021/06/07 02:09:42;;;;;;;;;;;15.50;99.90;;;14.46;100.00;96018.16;10322048;28;2063;-83
2021/06/07 02:14:44;;;;;;;;;;;15.50;99.90;;;14.43;100.00;96015.97;10347715;28;2020;-83
2021/06/07 02:19:46;;;;;;;;;;;15.50;99.90;;;14.37;100.00;96011.72;10345170;28;2150;-84
2021/06/07 02:24:49;;;;;;;;;;;15.40;99.90;;;14.34;100.00;96015.03;10316870;28;1928;-85
2021/06/07 02:29:51;;;;;;;;;;;15.40;99.90;;;14.29;100.00;96015.09;10330991;28;2269;-81
2021/06/07 02:34:54;;;;;;;;;;;15.40;99.90;;;14.27;100.00;96020.81;10335732;28;1981;-82
2021/06/07 02:39:56;;;;;;;;;;;15.30;99.90;;;14.22;100.00;96017.34;10318598;28;1258;-82
2021/06/07 02:44:59;;;;;;;;;;;15.30;99.90;;;14.20;100.00;96014.16;10329992;28;2099;-83
2021/06/07 02:50:01;;;;;;;;;;;15.30;99.90;;;14.12;100.00;96015.56;10335073;28;2059;-82
2021/06/07 02:55:03;;;;;;;;;;;15.20;99.90;;;14.05;100.00;96012.44;10329874;28;2152;-84
2021/06/07 03:00:06;;;;;;;;;;;15.10;99.90;;;13.91;100.00;96016.94;10328534;28;1923;-84
2021/06/07 03:05:08;;;;;;;;;;;15.10;99.90;;;13.92;100.00;96011.22;10324986;28;2076;-84
2021/06/07 03:10:10;;;;;;;;;;;15.00;99.90;;;13.91;100.00;96012.34;10325366;28;1891;-84
2021/06/07 03:15:13;;;;;;;;;;;15.00;99.90;;;13.89;100.00;96009.13;10330668;28;2056;-83
2021/06/07 03:20:15;;;;;;;;;;;15.00;99.90;;;14.07;100.00;96011.06;10334617;28;2094;-82
2021/06/07 03:25:17;;;;;;;;;;;15.10;99.90;;;14.11;100.00;96015.88;10332439;28;2212;-84
2021/06/07 03:30:20;;;;;;;;;;;15.10;99.90;;;14.22;100.00;96017.34;10327834;28;2072;-84
2021/06/07 03:35:22;;;;;;;;;;;15.20;99.90;;;14.35;100.00;96016.63;10374071;28;1891;-82
2021/06/07 03:40:24;;;;;;;;;;;15.30;99.90;;;14.44;100.00;96012.19;10372965;28;1906;-84
2021/06/07 03:45:27;;;;;;;;;;;15.40;99.90;;;14.54;100.00;96014.78;10342729;28;2135;-84
2021/06/07 03:50:29;;;;;;;;;;;15.50;99.90;;;14.63;100.00;96027.63;10339361;28;1892;-84
2021/06/07 03:55:32;;;;;;;;;;;15.60;99.90;;;14.69;100.00;96023.75;10332136;28;2261;-85
2021/06/07 04:00:34;;;;;;;;;;;15.70;99.90;;;14.75;100.00;96017.16;10351710;28;2148;-85
2021/06/07 04:05:36;;;;;;;;;;;15.70;99.90;;;14.77;100.00;96033.94;10379836;28;2210;-85
2021/06/07 04:10:39;;;;;;;;;;;15.80;99.90;;;14.90;100.00;96027.78;10364947;28;2241;-85
2021/06/07 04:15:41;;;;;;;;;;;15.80;99.90;;;15.04;100.00;96033.25;10365512;28;2168;-83
2021/06/07 04:20:45;;;;;;;;;;;16.00;99.90;;;15.26;100.00;96035.31;10371906;28;2168;-84
2021/06/07 04:25:47;;;;;;;;;;;16.10;99.90;;;15.38;100.00;96031.03;10374061;28;2208;-84
2021/06/07 04:30:49;;;;;;;;;;;16.30;99.90;;;15.63;100.00;96024.38;10368232;28;2194;-84
2021/06/07 04:35:52;;;;;;;;;;;16.40;99.90;;;15.66;100.00;96031.94;10356763;28;1946;-82
2021/06/07 04:40:54;;;;;;;;;;;16.60;99.90;;;15.69;100.00;96030.50;10352786;28;2154;-81
2021/06/07 04:45:57;;;;;;;;;;;16.60;99.90;;;15.91;99.34;96030.66;10355425;28;2135;-83
2021/06/07 04:50:59;;;;;;;;;;;16.70;99.90;;;15.91;99.12;96032.56;10359769;28;1801;-83
2021/06/07 04:56:02;;;;;;;;;;;16.80;99.90;;;15.88;98.51;96041.28;10352528;28;2146;-82
2021/06/07 05:01:06;;;;;;;;;;;16.90;99.90;;;16.12;97.69;96041.88;10342825;28;2167;-82
2021/06/07 05:06:08;;;;;;;;;;;16.90;99.90;;;16.04;98.13;96039.88;10331955;28;2401;-82
2021/06/07 05:11:11;;;;;;;;;;;17.00;99.90;;;16.19;95.73;96028.72;10348216;28;2169;-82
2021/06/07 05:16:13;;;;;;;;;;;17.10;99.90;;;16.21;95.02;96031.91;10339898;28;2174;-83
2021/06/07 05:21:19;;;;;;;;;;;17.10;99.90;;;16.42;96.01;96029.59;10331471;28;1991;-82
2021/06/07 05:26:21;;;;;;;;;;;17.30;99.90;;;16.75;92.35;96030.25;10349206;28;2417;-84
2021/06/07 05:31:25;;;;;;;;;;;17.50;99.90;;;16.99;89.67;96027.25;10330716;28;2063;-84
2021/06/07 05:36:29;;;;;;;;;;;17.70;99.90;;;17.24;91.21;96028.56;10350885;28;1995;-85
2021/06/07 05:41:31;;;;;;;;;;;17.90;99.90;;;17.32;90.32;96034.34;10363918;28;2082;-83
2021/06/07 05:46:34;;;;;;;;;;;18.10;99.90;;;17.53;87.78;96030.78;10359658;28;2080;-82
2021/06/07 05:51:36;;;;;;;;;;;18.30;99.90;;;17.72;87.15;96036.03;10381458;28;1294;-84
2021/06/07 05:56:39;;;;;;;;;;;18.50;99.90;;;18.09;82.27;96040.19;10357677;28;1953;-84
2021/06/07 06:01:41;;;;;;;;;;;18.70;99.90;;;17.95;83.13;96044.94;10393467;28;1919;-81
2021/06/07 06:06:44;;;;;;;;;;;18.80;99.90;;;18.01;81.36;96042.88;10377825;28;1698;-85
2021/06/07 06:11:46;;;;;;;;;;;18.80;99.90;;;17.72;82.21;96051.53;10370791;28;2133;-85
2021/06/07 06:16:48;;;;;;;;;;;18.70;99.90;;;17.55;82.13;96046.78;10363455;28;1966;-84
2021/06/07 06:21:51;;;;;;;;;;;18.90;99.90;;;17.58;83.58;96057.03;10331949;28;1811;-79
2021/06/07 06:26:56;;;;;;;;;;;18.40;99.90;;;17.71;83.80;96047.19;10328521;28;2172;-79
2021/06/07 06:31:58;;;;;;;;;;;18.60;99.90;;;17.91;82.72;96054.84;10327554;28;2028;-80
2021/06/07 06:37:01;;;;;;;;;;;18.60;99.90;;;17.56;83.35;96051.13;10310539;28;2340;-81
2021/06/07 06:42:03;;;;;;;;;;;18.60;99.90;;;17.89;81.90;96054.34;10332176;28;2233;-85
2021/06/07 06:47:06;;;;;;;;;;;18.70;99.90;;;17.82;81.82;96062.16;10336882;28;2433;-83
2021/06/07 06:52:10;;;;;;;;;;;18.60;99.90;;;18.03;83.13;96062.41;10320172;28;2025;-81
2021/06/07 06:57:26;;;;;;;;;;;18.70;99.90;;;18.27;79.50;96065.53;10353086;28;1911;-85
2021/06/07 07:02:31;;;;;;;;;;;18.90;99.90;;;18.29;78.26;96063.31;10330091;28;1660;-87
2021/06/07 07:07:40;;;;;;;;;;;19.00;99.90;;;18.38;77.79;96063.31;10348678;28;2346;-83
2021/06/07 07:12:43;;;;;;;;;;;19.10;99.90;;;18.61;77.87;96064.00;10325916;28;1172;-81
2021/06/07 07:17:45;;;;;;;;;;;19.20;99.90;;;18.86;73.56;96059.75;10338374;28;2015;-84
2021/06/07 07:22:48;;;;;;;;;;;19.50;99.90;;;19.91;75.06;96051.16;10354072;28;2035;-87
2021/06/07 07:27:50;;;;;;;;;;;20.00;99.90;;;20.24;67.44;96051.34;10333004;28;2193;-83
2021/06/07 07:33:01;;;;;;;;;;;20.70;99.90;;;20.42;67.91;96060.25;10341876;28;1457;-83
2021/06/07 08:23:27;;;;;;;;;;;21.50;99.90;;;21.50;62.46;96056.91;10421854;28;1951;-84
2021/06/07 08:28:59;;;;;;;;;;;21.90;99.90;;;22.32;60.69;96063.25;10390452;28;2006;-84
2021/06/07 08:34:25;;;;;;;;;;;22.50;99.90;;;22.13;59.11;96061.06;10407850;28;1441;-86
2021/06/07 08:39:45;;;;;;;;;;;22.70;99.90;;;21.51;62.10;96050.31;10388732;28;1915;-86
2021/06/07 08:44:49;;;;;;;;;;;22.30;99.90;;;21.76;61.02;96056.66;10390568;28;1890;-79
2021/06/07 08:55:34;;;;;;;;;;;22.60;99.90;;;20.47;63.80;96054.59;10391432;28;1914;-80
2021/06/07 09:00:38;;;;;;;;;;;22.10;99.90;;;20.78;61.55;96061.66;10403081;28;2030;-82
2021/06/07 09:06:21;;;;;;;;;;;;;;;;;;;;;
2021/06/07 09:16:57;;;;;;;;;;;21.00;99.90;;;19.48;69.13;96077.69;10384633;28;2138;-79
2021/06/07 09:22:00;;;;;;;;;;;20.60;99.90;;;19.01;71.37;96074.81;10398459;28;2090;-82
2021/06/07 09:27:06;;;;;;;;;;;20.20;99.90;;;19.37;69.15;96075.28;10385557;28;2062;-82
2021/06/07 09:32:26;;;;;;;;;;;20.30;99.90;;;19.81;68.12;96073.31;10389568;28;2114;-80
2021/06/07 09:37:45;;;;;;;;;;;20.60;99.90;;;20.05;67.24;96074.69;10392567;28;1943;-80
2021/06/07 09:43:05;;;;;;;;;;;20.70;99.90;;;20.85;63.96;96067.38;10391489;28;2279;-81
2021/06/07 09:48:12;;;;;;;;;;;21.20;99.90;;;20.58;63.44;96067.88;10385616;28;2117;-80
2021/06/07 09:53:15;;;;;;;;;;;21.50;99.90;;;20.87;61.72;96065.13;10390694;28;2024;-85
2021/06/07 09:58:18;;;;;;;;;;;21.70;99.90;;;20.86;62.49;96068.97;10405028;28;2341;-85
2021/06/07 10:03:21;;;;;;;;;;;21.80;99.90;;;21.68;60.75;96060.28;10389078;28;1683;-85
2021/06/07 10:08:26;;;;;;;;;;;22.00;99.90;;;21.70;58.87;96063.50;10386264;28;2029;-79
2021/06/07 10:13:28;;;;;;;;;;;22.60;99.90;;;22.33;57.76;96066.78;10396046;28;1803;-87
2021/06/07 10:18:33;;;;;;;;;;;23.70;99.90;;;22.46;55.71;96056.63;10393210;28;1940;-86
2021/06/07 10:23:35;;;;;;;;;;;23.00;99.90;;;21.78;57.02;96062.59;10396751;28;1517;-81
2021/06/07 10:28:38;;;;;;;;;;;23.10;99.90;;;22.28;55.94;96067.03;10393760;28;2258;-83
2021/06/07 10:33:40;;;;;;;;;;;23.00;99.90;;;22.34;55.27;96071.16;10410036;28;1964;-83
2021/06/07 10:39:25;;;;;;;;;;;;;;;;;;;;;
2021/06/07 10:44:33;;;;;;;;;;;23.00;99.90;;;21.38;57.92;96063.16;10424417;28;1914;-84
2021/06/07 10:49:42;;;;;;;;;;;22.50;99.90;;;21.34;59.18;96070.41;10422822;28;1889;-86
2021/06/07 10:54:56;;;;;;;;;;;22.40;99.90;;;20.90;60.17;96072.66;10386824;28;2107;-83
2021/06/07 11:00:20;;;;;;;;;;;22.00;99.90;;;20.80;61.03;96075.78;10402409;28;1917;-82
2021/06/07 11:11:38;;;;;;;;;;;21.70;99.90;;;21.87;58.01;96060.53;10410921;28;2232;-82
2021/06/07 11:22:22;;;;;;;;;;;23.30;99.90;;;22.35;55.66;96061.78;10388313;28;2020;-83
2021/06/07 11:33:44;;;;;;;;;;;24.10;99.90;;;24.05;50.67;96054.22;10395451;28;2078;-84
2021/06/07 11:39:39;;;;;;;;;;;24.60;99.90;;;22.74;53.85;96051.25;10386247;28;2265;-82
2021/06/07 11:44:49;;;;;;;;;;;24.50;99.90;;;22.83;54.78;96040.94;10412750;28;2346;-83
2021/06/07 11:50:02;;;;;;;;;;;23.90;99.90;;;23.00;53.85;96034.44;10391080;28;1774;-82
2021/06/07 11:55:18;;;;;;;;;;;;;;;;;;;;;
2021/06/07 12:06:23;;;;;;;;;;;23.90;99.90;;;23.86;52.03;96024.72;10209747;28;2131;-85
2021/06/07 12:11:37;;;;;;;;;;;24.40;99.90;;;24.64;49.14;96014.84;10390476;28;1348;-86
2021/06/07 12:16:43;;;;;;;;;;;25.00;99.90;;;24.63;48.47;96006.97;10418495;28;1975;-82
2021/06/07 12:21:54;;;;;;;;;;;25.30;99.90;;;24.04;49.21;96003.19;10398772;28;2204;-82
2021/06/07 12:32:28;;;;;;;;;;;25.50;99.90;;;24.38;49.09;95989.91;10395722;28;1981;-86
2021/06/07 12:37:34;;;;;;;;;;;25.60;99.90;;;25.29;48.22;95982.06;10410120;28;1979;-85
2021/06/07 12:42:37;;;;;;;;;;;25.80;99.90;;;25.39;47.56;95966.16;10404502;28;1467;-83
2021/06/07 12:47:42;;;;;;;;;;;26.30;99.90;;;24.24;50.10;95969.16;10415218;28;2128;-88
2021/06/07 12:52:53;;;;;;;;;;;26.00;99.90;;;23.80;50.39;95964.94;10421967;28;1257;-84
2021/06/07 12:57:59;;;;;;;;;;;25.10;99.90;;;23.36;51.92;95959.47;10426366;28;1962;-87
2021/06/07 13:03:15;;;;;;;;;;;24.50;99.90;;;23.68;49.00;95957.59;10398325;28;1956;-83
2021/06/07 13:08:21;;;;;;;;;;;24.50;99.90;;;24.38;48.65;95945.97;10385746;28;1479;-84
2021/06/07 13:13:24;;;;;;;;;;;25.00;99.90;;;23.99;48.24;95940.31;10403701;28;2028;-85
2021/06/07 13:18:29;;;;;;;;;;;25.30;99.90;;;24.47;46.56;95944.59;10401102;28;2172;-84
2021/06/07 13:29:06;;;;;;;;;;;25.40;99.90;;;24.75;45.62;95933.44;10392023;28;2262;-86
2021/06/07 13:34:17;;;;;;;;;;;25.50;99.90;;;24.27;45.62;95924.50;10411581;28;2164;-84
2021/06/07 13:39:38;;;;;;;;;;;25.20;99.90;;;23.72;46.60;95920.03;10398909;28;1926;-84
2021/06/07 13:44:42;;;;;;;;;;;24.90;99.90;;;24.18;46.40;95904.69;10398046;28;1714;-86
2021/06/07 13:49:45;;;;;;;;;;;25.00;99.90;;;24.91;45.18;95913.31;10404367;28;1735;-86
2021/06/07 14:07:16;;;;;;;;;;;26.10;99.90;;;25.57;44.04;95896.47;10126046;29;1612;-86
2021/06/07 14:29:03;;;;;;;;;;;25.60;99.90;;;24.08;46.81;95898.94;10349522;28;2123;-83
2021/06/07 14:34:15;;;;;;;;;;;25.10;99.90;;;23.83;46.91;95892.84;10366665;28;2099;-82
2021/06/07 14:39:18;;;;;;;;;;;24.80;99.90;;;24.19;46.35;95887.03;10420194;28;2009;-80
2021/06/07 14:44:20;;;;;;;;;;;24.90;99.90;;;24.66;44.06;95886.09;10429753;28;2135;-84
2021/06/07 14:49:24;;;;;;;;;;;25.50;99.90;;;25.18;43.26;95882.03;10408111;28;2260;-86
2021/06/07 14:54:32;;;;;;;;;;;25.80;99.90;;;24.62;44.66;95888.00;10409285;28;2113;-83
2021/06/07 14:59:37;;;;;;;;;;;25.90;99.90;;;23.40;47.87;95880.78;10408255;28;2116;-83
2021/06/07 15:04:49;;;;;;;;;;;25.10;99.90;;;23.59;46.45;95889.13;10399444;28;2085;-85
2021/06/07 15:09:59;;;;;;;;;;;24.60;99.90;;;23.73;46.09;95888.72;10399500;28;2030;-81
2021/06/07 15:15:03;;;;;;;;;;;24.70;99.90;;;23.86;46.00;95883.94;10409897;28;2079;-84
2021/06/07 15:20:14;;;;;;;;;;;24.90;99.90;;;24.03;44.42;95882.72;10410506;28;1976;-84
2021/06/07 15:25:17;;;;;;;;;;;25.10;99.90;;;24.25;45.11;95877.38;10406288;28;2082;-83
2021/06/07 15:30:22;;;;;;;;;;;25.20;99.90;;;23.92;45.20;95871.50;10404286;28;2077;-83
2021/06/07 15:35:33;;;;;;;;;;;25.10;99.90;;;23.67;45.56;95868.97;10392449;28;2141;-83
2021/06/07 15:40:39;;;;;;;;;;;24.90;99.90;;;24.46;44.01;95854.28;10403921;28;2107;-84
2021/06/07 15:45:50;;;;;;;;;;;25.30;99.90;;;24.23;44.87;95857.69;10386467;28;2086;-87
2021/06/07 15:50:52;;;;;;;;;;;25.40;99.60;;;24.63;44.75;95836.56;10399434;28;1984;-82
2021/06/07 15:55:55;;;;;;;;;;;25.40;99.90;;;24.04;46.84;95843.94;10402921;28;2050;-82
2021/06/07 16:06:45;;;;;;;;;;;24.90;99.90;;;23.58;47.38;95835.41;10359032;28;2322;-85
2021/06/07 16:12:11;;;;;;;;;;;;;;;;;;;;;
2021/06/07 16:17:46;;;;;;;;;;;24.70;99.90;;;23.16;48.95;95819.50;10423448;28;1896;-83
2021/06/07 16:22:57;;;;;;;;;;;24.40;99.90;;;23.23;49.57;95826.31;10402522;28;2117;-80
2021/06/07 16:33:27;;;;;;;;;;;24.20;99.90;;;23.07;50.51;95835.31;10403352;28;2029;-85
2021/06/07 16:38:41;;;;;;;;;;;24.20;99.90;;;23.09;50.50;95833.00;10391434;28;2376;-84
2021/06/07 16:43:49;;;;;;;;;;;24.10;99.90;;;23.06;51.10;95833.72;10402980;28;1991;-85
2021/06/07 16:48:54;;;;;;;;;;;24.00;99.90;;;22.97;50.56;95830.34;10390604;28;1830;-84
2021/06/07 16:54:03;;;;;;;;;;;24.00;99.90;;;23.07;50.44;95829.81;10391099;28;1714;-82
2021/06/07 16:59:07;;;;;;;;;;;23.90;99.90;;;23.40;49.40;95837.69;10404005;28;1981;-83
2021/06/07 17:04:10;;;;;;;;;;;24.00;99.90;;;23.49;48.93;95834.78;10396989;28;1738;-84
2021/06/07 17:09:20;;;;;;;;;;;24.30;99.90;;;24.31;47.06;95831.19;10414446;28;1731;-82
2021/06/07 17:14:29;;;;;;;;;;;24.60;99.90;;;24.14;47.95;95843.38;10398312;28;1402;-84
2021/06/07 17:19:36;;;;;;;;;;;25.00;99.90;;;23.29;44.31;95852.31;10400571;28;1984;-83
2021/06/07 17:24:38;;;;;;;;;;;24.20;99.90;;;23.24;43.69;95856.13;10401474;28;2492;-84
2021/06/07 17:29:41;;;;;;;;;;;24.20;96.90;;;23.76;42.81;95859.75;10399628;28;1915;-85
2021/06/07 17:34:47;;;;;;;;;;;24.30;97.20;;;23.54;42.61;95864.72;10453258;28;2069;-82
2021/06/07 17:39:50;;;;;;;;;;;24.50;95.60;;;23.41;43.32;95860.44;10407800;28;1969;-84
2021/06/07 17:44:54;;;;;;;;;;;24.30;95.90;;;23.20;44.36;95856.00;10410775;28;2336;-84
2021/06/07 17:50:08;;;;;;;;;;;24.20;96.40;;;22.98;43.78;95870.31;10403196;28;2261;-80
2021/06/07 18:00:50;;;;;;;;;;;23.90;96.80;;;22.86;46.05;95868.44;10382101;28;1919;-84
2021/06/07 18:05:57;;;;;;;;;;;23.70;98.20;;;22.74;46.82;95881.38;10392030;28;2097;-85
2021/06/07 18:11:02;;;;;;;;;;;23.70;98.90;;;22.37;47.63;95886.97;10417735;28;1973;-83
2021/06/07 18:16:08;;;;;;;;;;;23.50;99.40;;;22.09;49.02;95879.50;10375544;28;2073;-82
2021/06/07 18:21:15;;;;;;;;;;;23.30;99.90;;;21.94;49.88;95885.63;10387857;28;2019;-85
2021/06/07 18:26:22;;;;;;;;;;;23.00;99.90;;;21.70;51.54;95883.72;10408253;28;1445;-84
2021/06/07 18:31:27;;;;;;;;;;;22.90;99.90;;;21.54;53.09;95878.13;10394372;28;1446;-85
2021/06/07 18:36:32;;;;;;;;;;;22.60;99.90;;;21.39;53.97;95884.28;10395736;28;2053;-84
2021/06/07 18:41:40;;;;;;;;;;;22.60;99.90;;;21.17;54.78;95887.38;10398054;28;1919;-86
2021/06/07 18:52:35;;;;;;;;;;;22.10;99.90;;;20.92;56.48;95895.50;10392995;28;2084;-84
2021/06/07 18:57:38;;;;;;;;;;;22.00;99.90;;;20.77;57.26;95896.16;10395823;28;1945;-82
2021/06/07 19:03:03;;;;;;;;;;;21.80;99.90;;;20.72;57.97;95905.34;10406167;28;2133;-86
2021/06/07 19:08:12;;;;;;;;;;;21.80;99.90;;;20.38;59.16;95917.31;10408380;28;1830;-85
2021/06/07 19:13:19;;;;;;;;;;;21.70;99.90;;;20.15;59.74;95926.94;10417566;28;1885;-84
2021/06/07 19:18:34;;;;;;;;;;;21.40;99.90;;;19.92;60.79;95937.38;10433568;28;1963;-84
2021/06/07 19:23:43;;;;;;;;;;;21.20;99.90;;;19.71;61.71;95954.47;10391137;28;1733;-83
2021/06/07 19:28:51;;;;;;;;;;;21.00;99.90;;;19.48;63.17;95960.47;10409153;28;1899;-84
2021/06/07 19:33:59;;;;;;;;;;;20.70;99.90;;;19.26;64.43;95967.72;10395597;28;1306;-83
2021/06/07 19:39:09;;;;;;;;;;;20.50;99.90;;;19.01;65.29;95974.03;10386416;28;2121;-82
2021/06/07 19:44:12;;;;;;;;;;;20.30;99.90;;;18.87;66.06;95982.38;10405481;28;2109;-83
2021/06/07 19:49:15;;;;;;;;;;;20.10;99.90;;;18.76;66.74;95987.31;10393619;28;2099;-85
2021/06/07 19:54:34;;;;;;;;;;;20.00;99.90;;;18.68;67.38;95988.13;10394875;28;1529;-85
2021/06/07 19:59:40;;;;;;;;;;;19.90;99.90;;;18.50;68.26;95992.72;10399473;28;2037;-82
2021/06/07 20:04:49;;;;;;;;;;;19.80;99.90;;;18.32;68.95;96007.44;10394459;28;1919;-86
2021/06/07 20:10:01;;;;;;;;;;;19.60;99.90;;;18.19;69.16;96006.44;10420686;28;2310;-86
2021/06/07 20:15:30;;;;;;;;;;;19.40;99.90;;;18.06;69.33;96016.31;10417662;28;1582;-87
2021/06/07 20:20:40;;;;;;;;;;;19.30;99.90;;;17.98;69.86;96019.81;10441706;28;1961;-81
2021/06/07 20:25:56;;;;;;;;;;;19.20;99.90;;;17.95;70.88;96020.47;10418714;28;1382;-83
2021/06/07 20:31:03;;;;;;;;;;;19.10;99.90;;;17.83;71.51;96021.06;10415570;28;2084;-84
2021/06/07 20:36:22;;;;;;;;;;;19.00;99.90;;;17.64;72.17;96004.16;10414065;28;1480;-81
2021/06/07 20:41:25;;;;;;;;;;;18.90;99.90;;;17.56;72.29;96018.50;10424971;28;2093;-81
2021/06/07 20:46:30;;;;;;;;;;;18.80;99.90;;;17.45;72.75;96006.28;10413944;28;1590;-81
2021/06/07 20:51:48;;;;;;;;;;;18.70;99.90;;;17.33;73.44;96025.06;10415116;28;2151;-84
2021/06/07 20:56:58;;;;;;;;;;;18.50;99.90;;;17.18;73.97;96031.69;10415712;28;2168;-83
2021/06/07 21:02:01;;;;;;;;;;;18.40;99.90;;;17.10;74.67;96035.94;10399180;28;2298;-83
2021/06/07 21:07:16;;;;;;;;;;;18.30;99.90;;;17.04;75.11;96048.03;10399078;28;1977;-81
2021/06/07 21:12:20;;;;;;;;;;;18.20;99.90;;;16.97;75.01;96053.88;10396397;28;2165;-88
2021/06/07 21:17:38;;;;;;;;;;;13.40;99.90;;;17.33;73.04;96046.81;10407807;28;2073;-80
2021/06/07 21:22:40;;;;;;;;;;;18.20;99.90;;;17.44;73.15;96045.44;10382889;28;2165;-81
2021/06/07 21:27:44;;;;;;;;;;;18.30;99.90;;;17.34;73.76;96041.06;10386332;28;2145;-79
2021/06/07 21:32:49;;;;;;;;;;;18.30;99.90;;;17.51;73.44;96048.53;10401053;28;2194;-80
2021/06/07 21:37:52;;;;;;;;;;;19.30;99.90;;;17.52;74.10;96044.69;10400954;28;2087;-79
2021/06/07 21:42:54;;;;;;;;;;;18.40;99.90;;;17.85;72.47;96047.13;10386029;28;2013;-79
2021/06/07 21:47:56;;;;;;;;;;;18.70;99.90;;;17.73;73.01;96040.34;10384548;28;1917;-80
2021/06/07 21:52:59;;;;;;;;;;;18.60;99.90;;;17.70;72.52;96035.53;10401515;28;1952;-79
2021/06/07 21:58:04;;;;;;;;;;;18.60;99.90;;;17.66;72.57;96029.09;10403430;28;1914;-80
2021/06/07 22:03:06;;;;;;;;;;;18.60;99.90;;;17.14;74.48;96030.69;10402774;28;2049;-80
2021/06/07 22:08:08;;;;;;;;;;;18.40;99.90;;;17.63;72.95;96029.72;10403145;28;2057;-80
2021/06/07 22:13:11;;;;;;;;;;;19.10;99.90;;;17.23;74.59;96029.63;10401006;28;2000;-79
2021/06/07 22:18:13;;;;;;;;;;;18.30;99.90;;;17.11;75.11;96029.38;10394533;28;1907;-79
2021/06/07 22:23:15;;;;;;;;;;;18.20;99.90;;;17.11;75.53;96028.59;10395901;28;2013;-79
2021/06/07 22:28:18;;;;;;;;;;;18.10;99.90;;;17.12;75.37;96031.03;10382481;28;1977;-79
2021/06/07 22:33:20;;;;;;;;;;;18.00;99.90;;;17.20;74.99;96030.28;10396974;28;1809;-79
2021/06/07 22:38:22;;;;;;;;;;;18.00;99.90;;;17.03;75.81;96032.84;10385323;28;2053;-79
2021/06/07 22:43:24;;;;;;;;;;;18.00;99.90;;;16.89;76.37;96037.53;10396043;28;1914;-79
2021/06/07 22:48:26;;;;;;;;;;;17.90;99.90;;;16.71;77.62;96039.31;10405562;28;2057;-79
2021/06/07 22:53:28;;;;;;;;;;;17.80;99.90;;;17.07;76.37;96044.72;10415262;28;1987;-79
2021/06/07 22:58:31;;;;;;;;;;;17.70;99.90;;;16.75;77.43;96038.38;10398440;28;2224;-78
2021/06/07 23:03:33;;;;;;;;;;;17.80;99.90;;;16.59;77.99;96031.66;10386947;28;2131;-79
2021/06/07 23:08:35;;;;;;;;;;;17.70;99.90;;;16.35;78.85;96022.94;10384607;28;2114;-78
2021/06/07 23:13:39;;;;;;;;;;;17.60;99.90;;;16.24;78.97;96021.59;10404269;28;2270;-79
2021/06/07 23:18:43;;;;;;;;;;;17.40;99.90;;;16.34;78.83;96024.88;10406565;28;2315;-77
2021/06/07 23:23:46;;;;;;;;;;;17.30;99.90;;;16.25;79.51;96012.34;10407617;28;2185;-78
2021/06/07 23:28:48;;;;;;;;;;;17.30;99.90;;;16.51;78.12;96009.88;10390423;28;2276;-79
2021/06/07 23:33:50;;;;;;;;;;;17.40;99.90;;;16.37;78.82;96016.13;10407114;28;2177;-80
2021/06/07 23:38:52;;;;;;;;;;;17.80;99.90;;;16.34;78.59;96014.00;10412781;28;2100;-79
2021/06/07 23:43:55;;;;;;;;;;;17.40;99.90;;;16.40;79.05;96014.72;10413465;28;2073;-80
2021/06/07 23:48:57;;;;;;;;;;;17.30;99.90;;;16.27;78.35;96015.53;10396865;28;2094;-80
2021/06/07 23:53:59;;;;;;;;;;;17.40;99.90;;;16.04;80.20;96017.38;10401001;28;2096;-79
2021/06/07 23:59:01;;;;;;;;;;;17.20;99.90;;;16.06;80.17;96023.31;10401619;28;2116;-80
